Time;durP1;ratioP1;P1;durP2;ratioP2;P2;SDS_P1;SDS_P2;PMS_P1;PMS_P2;Temp;Humidity;BMP_temperature;BMP_pressure;BME280_temperature;BME280_humidity;BME280_pressure;Samples;Min_cycle;Max_cycle;Signal;HPM_P1;HPM_P2
2022/02/18 00:02:23;;;;;;;54.30;29.08;;;;;;;2.64;100.00;97684.13;5076284;28;20032;-74
2022/02/18 00:04:48;;;;;;;57.65;28.98;;;;;;;2.64;100.00;97681.44;5070788;28;20059;-74
2022/02/18 00:07:14;;;;;;;55.53;28.77;;;;;;;2.58;100.00;97674.34;5071046;28;20529;-75
2022/02/18 00:09:39;;;;;;;53.15;29.98;;;;;;;2.61;100.00;97679.25;5075487;28;20074;-75
2022/02/18 00:12:05;;;;;;;60.30;30.25;;;;;;;2.57;100.00;97683.50;5091042;28;20024;-75
2022/02/18 00:14:30;;;;;;;52.08;27.80;;;;;;;2.59;100.00;97687.63;5090176;28;20078;-75
2022/02/18 00:16:56;;;;;;;68.68;32.70;;;;;;;2.58;100.00;97685.97;5079986;28;20080;-74
2022/02/18 00:26:05;;;;;;;55.20;28.80;;;;;;;2.51;100.00;97695.31;5087647;28;20408;-74
2022/02/18 00:28:31;;;;;;;52.33;29.30;;;;;;;2.49;100.00;97700.16;5089129;28;20024;-74
2022/02/18 00:30:57;;;;;;;53.72;28.02;;;;;;;2.49;100.00;97703.66;5087793;28;20031;-74
2022/02/18 00:33:23;;;;;;;51.70;29.73;;;;;;;2.47;100.00;97715.78;5088652;28;20051;-74
2022/02/18 00:35:48;;;;;;;54.58;28.50;;;;;;;2.34;100.00;97716.13;5088835;28;20550;-75
2022/02/18 00:38:14;;;;;;;55.53;29.83;;;;;;;2.34;100.00;97732.31;5087354;28;20435;-75
2022/02/18 00:40:40;;;;;;;57.55;29.70;;;;;;;2.32;100.00;97737.97;5089692;28;20393;-75
2022/02/18 00:43:06;;;;;;;51.08;28.52;;;;;;;2.28;100.00;97746.81;5088258;28;20028;-74
2022/02/18 00:45:31;;;;;;;56.95;29.45;;;;;;;2.22;100.00;97759.41;5078331;28;20041;-74
2022/02/18 00:47:57;;;;;;;58.42;29.75;;;;;;;2.30;100.00;97768.94;5070013;28;20025;-75
2022/02/18 00:50:23;;;;;;;57.55;28.63;;;;;;;2.31;100.00;97773.28;5084861;28;20020;-74
2022/02/18 00:52:48;;;;;;;55.38;28.58;;;;;;;2.23;100.00;97779.09;5088900;28;20035;-75
2022/02/18 00:55:14;;;;;;;57.65;28.27;;;;;;;2.27;100.00;97764.06;5090551;28;20400;-75
2022/02/18 00:57:40;;;;;;;52.28;27.63;;;;;;;2.28;100.00;97765.69;5093799;28;20044;-74
2022/02/18 01:00:08;;;;;;;51.70;27.05;;;;;;;2.27;100.00;97772.16;5094472;28;20024;-75
2022/02/18 01:02:34;;;;;;;49.15;26.55;;;;;;;2.17;100.00;97754.75;5093841;28;20042;-73
2022/02/18 01:04:59;;;;;;;45.72;25.83;;;;;;;2.11;100.00;97752.22;5090607;28;20171;-74
2022/02/18 01:07:25;;;;;;;51.92;25.90;;;;;;;2.16;100.00;97757.72;5072092;28;20529;-75
2022/02/18 01:09:53;;;;;;;49.08;25.50;;;;;;;2.09;100.00;97752.47;5073290;28;20074;-74
2022/02/18 01:12:19;;;;;;;48.38;25.58;;;;;;;2.01;100.00;97749.34;5073473;28;20060;-75
2022/02/18 01:14:45;;;;;;;49.92;26.25;;;;;;;2.06;100.00;97768.31;5073767;28;20078;-74
2022/02/18 01:17:10;;;;;;;45.70;25.55;;;;;;;2.04;100.00;97782.03;5075487;28;20384;-75
2022/02/18 01:19:36;;;;;;;46.10;25.48;;;;;;;2.05;100.00;97785.56;5073333;28;20035;-75
2022/02/18 01:22:01;;;;;;;53.80;26.88;;;;;;;1.99;100.00;97786.53;5071895;28;20059;-75
2022/02/18 01:24:27;;;;;;;46.63;24.38;;;;;;;1.93;100.00;97785.66;5075642;28;20038;-75
2022/02/18 01:26:52;;;;;;;46.83;24.88;;;;;;;1.99;100.00;97779.28;5081621;28;20028;-75
2022/02/18 01:29:18;;;;;;;47.05;24.17;;;;;;;1.96;100.00;97770.84;5072304;28;20385;-74
2022/02/18 01:31:43;;;;;;;51.10;26.58;;;;;;;1.87;100.00;97772.31;5090867;28;20089;-74
2022/02/18 01:34:09;;;;;;;50.60;24.40;;;;;;;1.79;100.00;97778.94;5093329;28;20073;-75
2022/02/18 01:36:34;;;;;;;56.58;25.35;;;;;;;1.78;100.00;97771.09;5091801;28;20028;-75
2022/02/18 01:38:59;;;;;;;46.90;26.45;;;;;;;1.73;100.00;97774.50;5093050;28;20469;-75
2022/02/18 01:41:25;;;;;;;46.05;24.33;;;;;;;1.80;100.00;97771.66;5092203;28;20028;-75
2022/02/18 01:43:57;;;;;;;49.00;27.08;;;;;;;1.70;100.00;97749.91;5074478;28;20055;-76
2022/02/18 01:46:23;;;;;;;48.72;25.85;;;;;;;1.75;100.00;97760.81;5070381;28;20035;-75
2022/02/18 01:48:49;;;;;;;50.13;26.23;;;;;;;1.65;100.00;97774.91;5072070;28;20033;-75
2022/02/18 01:51:20;;;;;;;53.10;27.48;;;;;;;1.68;100.00;97797.88;5070792;28;20458;-75
2022/02/18 01:53:47;;;;;;;52.85;25.65;;;;;;;1.70;100.00;97806.53;5072125;28;20489;-76
2022/02/18 01:56:13;;;;;;;46.50;27.88;;;;;;;1.64;100.00;97811.00;5072057;28;20029;-75
2022/02/18 01:58:39;;;;;;;48.80;25.48;;;;;;;1.58;100.00;97801.19;5070698;28;20447;-75
2022/02/18 02:01:04;;;;;;;53.13;26.65;;;;;;;1.69;100.00;97805.72;5072831;28;20028;-75
2022/02/18 02:03:30;;;;;;;46.78;25.52;;;;;;;1.60;100.00;97809.84;5072182;28;20024;-75
2022/02/18 02:05:59;;;;;;;55.60;26.80;;;;;;;1.59;100.00;97805.53;5072349;28;20095;-75
2022/02/18 02:08:27;;;;;;;52.67;26.42;;;;;;;1.64;100.00;97797.53;5072781;28;20039;-75
2022/02/18 02:10:54;;;;;;;51.08;26.98;;;;;;;1.59;100.00;97795.56;5073211;28;20028;-76
2022/02/18 02:13:38;;;;;;;53.50;27.05;;;;;;;1.57;100.00;97783.38;5075878;28;20034;-76
2022/02/18 02:16:04;;;;;;;48.45;24.98;;;;;;;1.50;100.00;97796.22;5072169;28;20013;-75
2022/02/18 02:18:30;;;;;;;50.58;26.25;;;;;;;1.45;100.00;97814.97;5072944;28;20371;-75
2022/02/18 02:20:56;;;;;;;52.55;27.35;;;;;;;1.39;100.00;97821.31;5093768;28;20023;-75
2022/02/18 02:23:22;;;;;;;52.25;28.23;;;;;;;1.38;100.00;97814.31;5091295;28;20392;-75
2022/02/18 02:25:47;;;;;;;52.83;28.65;;;;;;;1.41;100.00;97811.91;5092077;28;20035;-76
2022/02/18 02:28:13;;;;;;;52.88;27.63;;;;;;;1.37;100.00;97807.28;5090592;28;20035;-75
2022/02/18 02:30:39;;;;;;;56.88;29.25;;;;;;;1.34;100.00;97796.97;5091148;28;20032;-75
2022/02/18 02:33:04;;;;;;;53.97;27.85;;;;;;;1.34;100.00;97802.38;5090740;28;20723;-75
2022/02/18 02:35:30;;;;;;;53.00;26.17;;;;;;;1.27;100.00;97796.28;5091912;28;20024;-75
2022/02/18 02:37:55;;;;;;;51.22;27.10;;;;;;;1.20;100.00;97793.75;5090728;28;20503;-76
2022/02/18 02:40:21;;;;;;;53.67;28.95;;;;;;;1.15;100.00;97784.75;5091528;28;20039;-75
2022/02/18 02:42:46;;;;;;;54.35;28.58;;;;;;;1.16;100.00;97797.16;5090468;28;20028;-75
2022/02/18 02:45:13;;;;;;;52.15;27.65;;;;;;;1.10;100.00;97806.19;5091596;28;20065;-75
2022/02/18 02:47:39;;;;;;;51.80;28.60;;;;;;;1.11;100.00;97838.25;5091654;28;20546;-76
2022/02/18 02:50:05;;;;;;;50.53;26.77;;;;;;;1.23;100.00;97832.84;5089962;28;20028;-75
2022/02/18 02:52:31;;;;;;;53.63;27.02;;;;;;;1.31;100.00;97822.53;5090109;28;20024;-75
2022/02/18 02:54:57;;;;;;;50.47;27.02;;;;;;;1.24;100.00;97831.78;5091416;28;20370;-75
2022/02/18 02:57:22;;;;;;;55.83;28.50;;;;;;;1.24;100.00;97843.38;5091300;28;20105;-75
2022/02/18 02:59:48;;;;;;;48.72;26.35;;;;;;;1.31;100.00;97845.94;5091747;28;20051;-75
2022/02/18 03:02:13;;;;;;;60.88;28.75;;;;;;;1.35;100.00;97836.31;5091391;28;20031;-75
2022/02/18 03:04:40;;;;;;;52.45;27.45;;;;;;;1.46;100.00;97835.47;5091034;28;20098;-75
2022/02/18 03:07:05;;;;;;;49.45;25.60;;;;;;;1.43;100.00;97844.03;5093230;28;20031;-75
2022/02/18 03:09:31;;;;;;;46.17;24.63;;;;;;;1.32;100.00;97826.00;5092018;28;20032;-75
2022/02/18 03:11:56;;;;;;;46.53;24.88;;;;;;;1.19;100.00;97832.50;5091156;28;20052;-75
2022/02/18 03:14:24;;;;;;;48.13;24.73;;;;;;;1.16;100.00;97846.44;5091409;28;20085;-75
2022/02/18 03:16:49;;;;;;;47.67;25.65;;;;;;;1.13;100.00;97854.19;5090969;28;20070;-74
2022/02/18 03:19:15;;;;;;;51.70;26.70;;;;;;;1.03;100.00;97871.75;5080788;28;20036;-75
2022/02/18 03:21:40;;;;;;;52.05;27.23;;;;;;;0.92;100.00;97886.06;5089204;28;20374;-75
2022/02/18 03:24:06;;;;;;;52.58;26.77;;;;;;;0.88;100.00;97894.81;5090458;28;20035;-75
2022/02/18 03:26:31;;;;;;;48.80;25.60;;;;;;;0.92;100.00;97886.06;5089794;28;20122;-75
2022/02/18 03:28:56;;;;;;;46.90;25.42;;;;;;;0.88;100.00;97873.28;5089962;28;20023;-75
2022/02/18 03:31:22;;;;;;;51.80;26.02;;;;;;;0.88;100.00;97884.06;5087664;28;20051;-75
2022/02/18 03:33:47;;;;;;;48.75;25.67;;;;;;;0.93;100.00;97886.88;5077507;28;20043;-75
2022/02/18 03:36:13;;;;;;;46.88;25.58;;;;;;;0.99;100.00;97892.16;5090731;28;20391;-75
2022/02/18 03:38:39;;;;;;;53.42;26.90;;;;;;;0.88;100.00;97895.66;5079049;28;20193;-74
2022/02/18 03:41:05;;;;;;;48.83;25.17;;;;;;;0.85;100.00;97890.75;5070582;28;20047;-74
2022/02/18 03:43:30;;;;;;;46.92;25.58;;;;;;;0.89;100.00;97897.28;5070549;28;20481;-74
2022/02/18 03:45:56;;;;;;;48.17;25.92;;;;;;;0.94;100.00;97902.00;5070515;28;20024;-76
2022/02/18 03:48:21;;;;;;;51.10;28.08;;;;;;;0.95;100.00;97901.75;5070100;28;20115;-75
2022/02/18 03:50:47;;;;;;;51.28;27.13;;;;;;;0.89;100.00;97902.69;5081505;28;20033;-75
2022/02/18 03:53:14;;;;;;;53.72;26.05;;;;;;;0.85;100.00;97898.00;5090704;28;20047;-74
2022/02/18 03:55:39;;;;;;;54.58;27.02;;;;;;;0.84;100.00;97883.75;5090526;28;20035;-75
2022/02/18 03:58:05;;;;;;;47.83;26.50;;;;;;;0.83;100.00;97874.00;5090451;28;20052;-74
2022/02/18 04:00:30;;;;;;;48.47;26.05;;;;;;;0.84;100.00;97866.75;5089442;28;20441;-75
2022/02/18 04:02:55;;;;;;;45.55;25.23;;;;;;;0.94;100.00;97873.16;5092995;28;20047;-75
2022/02/18 04:05:21;;;;;;;49.47;26.83;;;;;;;0.99;100.00;97875.16;5090016;28;20028;-75
2022/02/18 04:07:46;;;;;;;47.42;25.08;;;;;;;1.16;100.00;97883.34;5090290;28;20121;-75
2022/02/18 04:10:12;;;;;;;54.92;27.10;;;;;;;1.28;100.00;97878.75;5089595;28;20031;-75
2022/02/18 04:12:37;;;;;;;48.58;25.05;;;;;;;1.30;100.00;97872.06;5090606;28;20425;-75
2022/02/18 04:15:04;;;;;;;47.97;25.48;;;;;;;1.39;100.00;97880.59;5090395;28;21669;-75
2022/02/18 04:17:29;;;;;;;45.88;25.35;;;;;;;1.38;100.00;97868.19;5094198;28;20038;-75
2022/02/18 04:19:55;;;;;;;46.58;26.45;;;;;;;1.45;100.00;97875.06;5095312;28;20012;-76
2022/02/18 04:22:21;;;;;;;49.92;25.10;;;;;;;1.43;100.00;97871.78;5095215;28;20028;-75
2022/02/18 04:24:46;;;;;;;51.90;26.63;;;;;;;1.42;100.00;97880.94;5092931;28;20024;-74
2022/02/18 04:27:12;;;;;;;48.33;25.30;;;;;;;1.44;100.00;97896.88;5093014;28;20496;-74
2022/02/18 04:29:37;;;;;;;53.28;26.00;;;;;;;1.33;100.00;97903.09;5090783;28;20028;-75
2022/02/18 04:32:03;;;;;;;52.60;27.75;;;;;;;1.39;100.00;97897.56;5093278;28;20024;-75
2022/02/18 04:34:28;;;;;;;52.15;26.58;;;;;;;1.48;100.00;97887.22;5094228;28;20027;-74
2022/02/18 04:36:54;;;;;;;52.72;25.23;;;;;;;1.54;100.00;97889.78;5094011;28;20035;-74
2022/02/18 04:39:21;;;;;;;48.08;24.80;;;;;;;1.57;100.00;97892.00;5094233;28;20042;-76
2022/02/18 04:41:46;;;;;;;48.97;27.10;;;;;;;1.40;100.00;97903.78;5094246;28;20067;-75
2022/02/18 04:44:14;;;;;;;52.03;26.63;;;;;;;1.27;100.00;97893.25;5092988;28;20457;-74
2022/02/18 04:46:39;;;;;;;50.65;26.35;;;;;;;1.16;100.00;97891.44;5094393;28;20051;-74
2022/02/18 04:49:05;;;;;;;49.45;26.15;;;;;;;1.04;100.00;97897.63;5094463;28;20050;-74
2022/02/18 04:51:30;;;;;;;51.40;27.73;;;;;;;1.03;100.00;97898.69;5094706;28;20020;-75
2022/02/18 04:53:56;;;;;;;52.58;28.35;;;;;;;1.02;100.00;97910.53;5092756;28;20145;-74
2022/02/18 04:56:21;;;;;;;57.95;27.42;;;;;;;0.93;100.00;97925.41;5092974;28;20107;-75
2022/02/18 04:58:47;;;;;;;56.03;27.80;;;;;;;0.92;100.00;97929.13;5097037;28;20055;-74
2022/02/18 05:01:12;;;;;;;56.78;27.48;;;;;;;0.85;100.00;97932.97;5094529;28;20016;-75
2022/02/18 05:03:38;;;;;;;51.85;27.10;;;;;;;0.91;100.00;97937.44;5092607;28;20044;-74
2022/02/18 05:06:05;;;;;;;57.63;30.30;;;;;;;0.76;100.00;97924.44;5094339;28;20069;-75
2022/02/18 05:08:31;;;;;;;55.17;28.92;;;;;;;0.69;100.00;97918.34;5094292;28;20507;-74
2022/02/18 05:10:56;;;;;;;52.78;27.88;;;;;;;0.68;100.00;97907.84;5093982;28;20051;-75
2022/02/18 05:13:22;;;;;;;55.65;28.25;;;;;;;0.79;100.00;97918.59;5093836;28;20046;-74
2022/02/18 05:15:47;;;;;;;57.00;28.52;;;;;;;0.85;100.00;97914.97;5093792;28;20016;-74
2022/02/18 05:18:13;;;;;;;51.97;27.02;;;;;;;0.78;100.00;97908.91;5093768;28;20020;-75
2022/02/18 05:20:38;;;;;;;58.30;29.77;;;;;;;0.84;100.00;97923.28;5094017;28;20031;-74
2022/02/18 05:23:04;;;;;;;62.00;29.08;;;;;;;0.68;100.00;97921.28;5093742;28;20031;-75
2022/02/18 05:25:31;;;;;;;58.40;29.88;;;;;;;0.60;100.00;97906.28;5092621;28;20051;-75
2022/02/18 05:27:57;;;;;;;62.67;33.88;;;;;;;0.65;100.00;97911.81;5093562;28;20093;-74
2022/02/18 05:30:23;;;;;;;64.18;31.73;;;;;;;0.58;100.00;97916.47;5093882;28;20028;-75
2022/02/18 05:32:48;;;;;;;63.63;32.00;;;;;;;0.46;100.00;97912.97;5093755;28;20076;-74
2022/02/18 05:35:14;;;;;;;58.00;30.50;;;;;;;0.56;100.00;97923.97;5092045;28;20016;-74
2022/02/18 05:37:39;;;;;;;54.25;27.70;;;;;;;0.61;100.00;97925.97;5093338;28;20027;-74
2022/02/18 05:40:05;;;;;;;52.25;28.02;;;;;;;0.50;100.00;97931.09;5091867;28;20040;-75
2022/02/18 05:42:30;;;;;;;55.65;28.67;;;;;;;0.38;100.00;97926.72;5092540;28;20507;-73
2022/02/18 05:44:56;;;;;;;54.63;28.17;;;;;;;0.47;100.00;97926.16;5093111;28;20020;-74
2022/02/18 05:47:21;;;;;;;58.80;28.58;;;;;;;0.49;100.00;97925.94;5092838;28;20087;-74
2022/02/18 05:49:47;;;;;;;59.38;28.02;;;;;;;0.37;100.00;97920.56;5092950;28;20039;-74
2022/02/18 05:52:12;;;;;;;51.53;26.92;;;;;;;0.42;100.00;97925.22;5093889;28;20032;-77
2022/02/18 05:54:37;;;;;;;52.38;28.33;;;;;;;0.38;100.00;97927.56;5094564;28;20024;-75
2022/02/18 05:57:03;;;;;;;55.10;27.10;;;;;;;0.37;100.00;97930.50;5092901;28;20051;-74
2022/02/18 05:59:29;;;;;;;47.92;24.85;;;;;;;0.34;100.00;97930.97;5092625;28;20076;-74
2022/02/18 06:01:54;;;;;;;55.63;26.23;;;;;;;0.39;100.00;97945.34;5091617;28;20115;-74
2022/02/18 06:04:20;;;;;;;61.42;29.80;;;;;;;0.43;100.00;97946.53;5092722;28;20053;-74
2022/02/18 06:06:45;;;;;;;56.78;28.20;;;;;;;0.35;100.00;97949.53;5092574;28;20035;-73
2022/02/18 06:09:11;;;;;;;58.20;27.60;;;;;;;0.43;100.00;97956.47;5092513;28;20033;-74
2022/02/18 06:11:37;;;;;;;63.75;28.52;;;;;;;0.39;100.00;97966.03;5092492;28;20031;-75
2022/02/18 06:14:03;;;;;;;52.20;29.52;;;;;;;0.35;100.00;97972.91;5092503;28;20028;-75
2022/02/18 06:16:30;;;;;;;59.63;29.17;;;;;;;0.43;100.00;97989.56;5092470;28;20024;-75
2022/02/18 06:18:56;;;;;;;60.22;29.63;;;;;;;0.42;100.00;97987.94;5092460;28;20051;-74
2022/02/18 06:21:22;;;;;;;56.97;30.27;;;;;;;0.49;100.00;97998.59;5092354;28;20028;-74
2022/02/18 06:23:47;;;;;;;55.78;29.30;;;;;;;0.57;100.00;98003.63;5092409;28;20028;-74
2022/02/18 06:26:12;;;;;;;66.88;29.63;;;;;;;0.64;100.00;97996.28;5091422;28;20104;-74
2022/02/18 06:28:39;;;;;;;61.63;28.60;;;;;;;0.85;100.00;97995.72;5092399;28;20043;-74
2022/02/18 06:31:04;;;;;;;58.58;27.85;;;;;;;0.83;100.00;97989.75;5096018;28;20016;-76
2022/02/18 06:33:30;;;;;;;57.15;27.65;;;;;;;1.04;100.00;97986.50;5097283;28;20426;-73
2022/02/18 06:35:55;;;;;;;65.15;31.02;;;;;;;1.17;100.00;97981.91;5092690;28;20381;-72
2022/02/18 06:38:21;;;;;;;61.83;28.70;;;;;;;1.24;100.00;97983.44;5091628;28;20101;-75
2022/02/18 06:40:46;;;;;;;52.65;26.58;;;;;;;1.39;100.00;97966.78;5082628;28;20020;-75
2022/02/18 06:43:12;;;;;;;51.78;26.30;;;;;;;1.52;100.00;97961.16;5092300;28;20032;-73
2022/02/18 06:45:37;;;;;;;52.40;27.15;;;;;;;1.60;100.00;97964.28;5075153;28;20089;-74
2022/02/18 06:48:03;;;;;;;53.17;28.55;;;;;;;1.78;100.00;97973.28;5072212;28;20036;-76
2022/02/18 06:50:29;;;;;;;55.28;28.70;;;;;;;2.00;100.00;97958.09;5080150;28;20119;-74
2022/02/18 06:52:56;;;;;;;56.95;29.73;;;;;;;2.04;100.00;97946.56;5089313;28;20123;-75
2022/02/18 06:55:24;;;;;;;52.80;25.95;;;;;;;2.06;100.00;97973.31;5090739;28;20115;-74
2022/02/18 06:57:52;;;;;;;47.70;26.70;;;;;;;2.22;100.00;97977.13;5074066;28;20810;-74
2022/02/18 07:00:18;;;;;;;50.45;26.10;;;;;;;2.48;100.00;97990.00;5069710;28;20024;-75
2022/02/18 07:02:43;;;;;;;43.25;23.98;;;;;;;2.94;100.00;97992.44;5077704;28;20086;-75
2022/02/18 07:05:11;;;;;;;47.95;24.33;;;;;;;3.10;100.00;97996.19;5089935;28;20028;-79
2022/02/18 07:07:37;;;;;;;40.15;22.77;;;;;;;3.38;100.00;97992.56;5090268;28;20043;-74
2022/02/18 07:10:04;;;;;;;41.45;21.77;;;;;;;3.65;100.00;97993.47;5091211;28;20066;-73
2022/02/18 07:12:29;;;;;;;42.13;21.73;;;;;;;3.67;100.00;98002.16;5092071;28;20052;-75
2022/02/18 07:14:55;;;;;;;38.72;22.20;;;;;;;3.84;100.00;98002.94;5091657;28;20054;-74
2022/02/18 07:17:23;;;;;;;42.28;21.77;;;;;;;4.01;100.00;97998.25;5091186;28;20032;-74
2022/02/18 07:19:48;;;;;;;39.28;21.30;;;;;;;4.26;100.00;98001.28;5091131;28;20058;-75
2022/02/18 07:22:14;;;;;;;39.10;20.65;;;;;;;4.24;100.00;97999.88;5091259;28;20024;-74
2022/02/18 07:24:39;;;;;;;36.10;19.60;;;;;;;5.18;100.00;98008.38;5091154;28;20040;-75
2022/02/18 07:27:05;;;;;;;43.55;21.17;;;;;;;5.59;97.43;98009.47;5090747;28;20069;-75
2022/02/18 07:29:30;;;;;;;35.80;20.35;;;;;;;6.08;93.72;98013.56;5090024;28;20384;-75
2022/02/18 07:31:56;;;;;;;37.85;20.38;;;;;;;6.60;90.00;98020.81;5091039;28;20050;-75
2022/02/18 07:34:21;;;;;;;30.38;19.23;;;;;;;7.64;83.46;98017.59;5091236;28;20141;-76
2022/02/18 07:36:46;;;;;;;34.58;19.88;;;;;;;7.14;83.89;98019.25;5091063;28;20027;-75
2022/02/18 07:39:12;;;;;;;35.33;20.23;;;;;;;7.31;83.54;98014.38;5090632;28;20393;-75
2022/02/18 07:41:37;;;;;;;34.50;21.42;;;;;;;6.88;85.80;98017.63;5090743;28;20043;-75
2022/02/18 07:44:03;;;;;;;35.70;22.20;;;;;;;5.86;89.95;98027.31;5093852;28;20499;-75
2022/02/18 07:46:28;;;;;;;37.92;22.60;;;;;;;5.91;93.00;98029.25;5090908;28;20608;-75
2022/02/18 07:48:53;;;;;;;39.97;21.23;;;;;;;6.53;89.64;98040.09;5090886;28;20028;-76
2022/02/18 07:51:19;;;;;;;35.53;20.90;;;;;;;7.05;86.78;98045.34;5089555;28;20030;-74
2022/02/18 07:53:46;;;;;;;35.50;21.40;;;;;;;8.24;81.13;98046.59;5090727;28;20028;-76
2022/02/18 07:56:11;;;;;;;38.05;21.83;;;;;;;9.43;74.48;98046.19;5090759;28;20031;-75
2022/02/18 07:58:37;;;;;;;32.50;20.38;;;;;;;10.81;67.88;98049.09;5090374;28;20052;-74
2022/02/18 08:01:02;;;;;;;34.65;19.88;;;;;;;11.13;67.07;98047.25;5090509;28;20028;-74
2022/02/18 08:03:28;;;;;;;33.13;21.88;;;;;;;12.69;60.46;98040.88;5089904;28;20086;-74
2022/02/18 08:05:54;;;;;;;37.28;21.52;;;;;;;12.92;58.40;98051.94;5094101;28;20424;-76
2022/02/18 08:08:24;;;;;;;34.05;21.15;;;;;;;12.53;59.43;98056.03;5096868;28;20028;-76
2022/02/18 08:10:50;;;;;;;32.30;21.85;;;;;;;12.75;58.45;98053.38;5096846;28;20023;-75
2022/02/18 08:13:16;;;;;;;32.80;21.48;;;;;;;12.92;57.67;98051.94;5095986;28;20485;-74
2022/02/18 08:15:41;;;;;;;33.85;22.35;;;;;;;12.51;58.97;98060.22;5097451;28;20023;-76
2022/02/18 08:18:06;;;;;;;35.28;21.75;;;;;;;13.15;57.05;98048.97;5097064;28;20389;-74
2022/02/18 08:20:32;;;;;;;35.88;22.63;;;;;;;13.68;55.53;98043.59;5097495;28;20526;-79
2022/02/18 08:22:57;;;;;;;36.00;22.15;;;;;;;13.75;55.39;98051.38;5097098;28;20020;-76
2022/02/18 08:25:23;;;;;;;32.25;21.15;;;;;;;15.06;52.42;98042.22;5095871;28;20482;-76
2022/02/18 08:27:48;;;;;;;32.55;21.35;;;;;;;14.72;52.95;98051.22;5095786;28;20023;-77
2022/02/18 08:30:13;;;;;;;33.85;21.35;;;;;;;14.50;53.41;98053.25;5095700;28;20401;-76
2022/02/18 08:32:39;;;;;;;35.35;21.73;;;;;;;14.32;53.67;98049.56;5097918;28;20051;-76
2022/02/18 08:35:05;;;;;;;34.20;19.92;;;;;;;14.89;52.55;98056.78;5096945;28;20042;-76
2022/02/18 08:37:30;;;;;;;33.72;22.08;;;;;;;15.12;50.95;98059.41;5096140;28;20050;-75
2022/02/18 08:39:56;;;;;;;34.85;21.63;;;;;;;14.96;50.01;98057.13;5100185;28;20459;-76
2022/02/18 08:42:22;;;;;;;39.72;22.92;;;;;;;14.04;52.45;98048.16;5097232;28;20012;-78
2022/02/18 08:44:48;;;;;;;34.15;22.27;;;;;;;14.13;52.49;98046.25;5096668;28;20084;-77
2022/02/18 08:47:13;;;;;;;47.75;26.63;;;;;;;12.89;55.09;98048.69;5099345;28;20118;-75
2022/02/18 08:49:42;;;;;;;36.63;23.00;;;;;;;13.28;55.45;98061.06;5106438;28;20030;-76
2022/02/18 08:52:07;;;;;;;37.95;22.35;;;;;;;14.02;53.40;98053.16;5111770;28;20143;-76
2022/02/18 08:54:33;;;;;;;35.33;23.52;;;;;;;13.86;54.00;98047.25;5097300;28;20099;-75
2022/02/18 08:56:58;;;;;;;41.00;24.48;;;;;;;13.36;55.35;98035.56;5097235;28;20038;-75
2022/02/18 08:59:24;;;;;;;42.60;26.77;;;;;;;12.30;57.85;98033.19;5097365;28;20028;-76
2022/02/18 09:01:49;;;;;;;38.35;24.30;;;;;;;13.24;55.69;98032.56;5097227;28;20030;-76
2022/02/18 09:04:15;;;;;;;33.95;22.33;;;;;;;13.47;55.55;98036.94;5097713;28;20107;-77
2022/02/18 09:06:40;;;;;;;35.95;22.50;;;;;;;14.01;53.38;98024.84;5095719;28;20023;-76
2022/02/18 09:09:06;;;;;;;28.48;20.05;;;;;;;13.99;53.42;98034.53;5097168;28;20024;-76
2022/02/18 09:11:31;;;;;;;28.17;20.27;;;;;;;13.51;56.06;98026.94;5097176;28;20024;-76
2022/02/18 09:13:57;;;;;;;29.13;19.15;;;;;;;14.22;53.19;98030.63;5096922;28;20066;-76
2022/02/18 09:16:22;;;;;;;30.17;19.35;;;;;;;15.30;50.93;98033.47;5109236;28;20047;-77
2022/02/18 09:18:48;;;;;;;26.55;19.55;;;;;;;15.27;50.43;98034.94;5108168;28;20027;-75
2022/02/18 09:21:14;;;;;;;31.33;21.10;;;;;;;15.07;51.92;98034.78;5104433;28;20024;-74
2022/02/18 09:23:40;;;;;;;32.25;20.13;;;;;;;14.94;51.91;98029.06;5095839;28;20020;-75
2022/02/18 09:26:05;;;;;;;29.67;19.45;;;;;;;15.21;50.38;98040.94;5091413;28;20177;-75
2022/02/18 09:28:31;;;;;;;31.40;21.35;;;;;;;14.69;52.01;98021.56;5092747;28;20020;-76
2022/02/18 09:30:56;;;;;;;29.33;20.33;;;;;;;14.06;53.33;98026.66;5093120;28;20039;-76
2022/02/18 09:33:23;;;;;;;31.83;21.08;;;;;;;15.32;51.07;98014.66;5091491;28;20113;-76
2022/02/18 09:35:49;;;;;;;35.67;22.13;;;;;;;16.37;49.13;98023.25;5092919;28;20032;-75
2022/02/18 09:38:16;;;;;;;32.13;20.80;;;;;;;16.17;48.33;98022.03;5091879;28;20092;-74
2022/02/18 09:40:44;;;;;;;29.02;21.08;;;;;;;16.56;47.95;98016.22;5092043;28;20031;-74
2022/02/18 09:43:09;;;;;;;31.40;21.27;;;;;;;16.81;47.73;98010.88;5093523;28;20027;-75
2022/02/18 09:45:36;;;;;;;30.35;21.27;;;;;;;16.49;47.04;98010.38;5089462;28;20020;-74
2022/02/18 09:48:01;;;;;;;31.92;21.27;;;;;;;15.82;48.51;97998.44;5090766;28;20030;-73
2022/02/18 09:50:28;;;;;;;32.83;21.50;;;;;;;15.39;50.25;97987.44;5091856;28;20008;-72
2022/02/18 09:52:54;;;;;;;30.50;21.48;;;;;;;15.98;48.71;97981.00;5091883;28;20019;-73
2022/02/18 09:55:19;;;;;;;32.08;21.73;;;;;;;15.91;49.24;97988.19;5091669;28;20020;-73
2022/02/18 09:57:58;;;;;;;34.67;23.10;;;;;;;15.45;49.99;97980.59;5091657;28;20032;-72
2022/02/18 10:00:24;;;;;;;39.33;22.98;;;;;;;16.02;49.67;97959.91;5091389;28;20473;-74
2022/02/18 10:02:50;;;;;;;36.72;22.75;;;;;;;16.25;47.93;97963.22;5092123;28;20081;-72
2022/02/18 10:05:17;;;;;;;33.08;22.50;;;;;;;16.50;47.05;97972.50;5091795;28;20024;-72
2022/02/18 10:08:09;;;;;;;33.08;21.40;;;;;;;16.04;48.96;97962.31;5091405;28;20051;-73
2022/02/18 10:10:37;;;;;;;36.00;21.65;;;;;;;16.82;47.34;97979.34;5089296;28;20023;-73
2022/02/18 10:13:03;;;;;;;37.95;22.65;;;;;;;16.63;47.50;97971.50;5091702;28;20020;-76
2022/02/18 10:15:29;;;;;;;32.00;23.00;;;;;;;16.72;47.97;97972.25;5096359;28;20107;-75
2022/02/18 10:18:05;;;;;;;32.10;21.70;;;;;;;17.79;45.46;97974.31;5091323;28;20008;-75
2022/02/18 10:20:30;;;;;;;32.03;22.58;;;;;;;17.47;46.63;97978.66;5088821;28;20145;-76
2022/02/18 10:23:05;;;;;;;36.55;21.55;;;;;;;17.46;46.47;97965.97;5088540;28;20477;-76
2022/02/18 10:25:33;;;;;;;36.33;22.63;;;;;;;18.99;43.99;97964.44;5084297;28;20173;-76
2022/02/18 10:28:00;;;;;;;34.90;21.92;;;;;;;18.30;42.17;97968.16;5078994;28;20024;-75
2022/02/18 10:30:28;;;;;;;29.60;21.15;;;;;;;19.69;39.03;97974.06;5091245;28;20051;-75
2022/02/18 10:32:54;;;;;;;31.13;20.27;;;;;;;18.71;41.01;97972.69;5092080;28;20114;-75
2022/02/18 10:35:28;;;;;;;29.40;19.10;;;;;;;19.02;40.57;97966.50;5091231;28;20066;-76
2022/02/18 10:37:54;;;;;;;31.95;20.88;;;;;;;19.17;40.05;97958.25;5087986;28;20114;-75
2022/02/18 10:40:20;;;;;;;29.55;19.73;;;;;;;19.24;40.44;97958.47;5091103;28;20152;-75
2022/02/18 10:42:47;;;;;;;28.98;20.10;;;;;;;19.58;40.52;97961.84;5091101;28;20464;-74
2022/02/18 10:45:18;;;;;;;31.85;20.70;;;;;;;19.14;40.56;97942.31;5091087;28;20032;-76
2022/02/18 10:47:44;;;;;;;29.80;19.65;;;;;;;18.80;41.22;97942.06;5086302;28;20055;-77
2022/02/18 10:50:20;;;;;;;29.20;20.58;;;;;;;18.64;41.67;97944.75;5091196;28;20494;-79
2022/02/18 10:53:14;;;;;;;31.05;21.17;;;;;;;17.97;43.26;97937.78;5089956;28;20045;-74
2022/02/18 10:55:57;;;;;;;30.58;20.02;;;;;;;17.21;45.35;97931.06;5086598;28;20031;-74
2022/02/18 10:58:27;;;;;;;33.08;20.17;;;;;;;17.62;44.77;97926.31;5089898;28;20078;-74
2022/02/18 11:01:02;;;;;;;34.80;20.33;;;;;;;18.09;43.82;97926.72;5091142;28;20020;-74
2022/02/18 11:03:28;;;;;;;29.85;19.45;;;;;;;17.99;43.69;97896.72;5102203;28;20032;-75
2022/02/18 11:05:53;;;;;;;32.92;18.17;;;;;;;18.22;43.22;97896.28;5099903;28;20522;-71
2022/02/18 11:08:29;;;;;;;27.25;18.30;;;;;;;18.32;43.01;97909.66;5089111;28;20016;-72
2022/02/18 11:10:56;;;;;;;26.52;18.83;;;;;;;18.50;43.04;97916.59;5088278;28;20481;-72
2022/02/18 11:13:22;;;;;;;25.45;17.50;;;;;;;18.29;43.47;97904.81;5072307;28;20024;-72
2022/02/18 11:15:48;;;;;;;40.85;19.50;;;;;;;16.92;46.12;97902.38;5088755;28;20388;-72
2022/02/18 11:18:14;;;;;;;27.35;18.45;;;;;;;14.78;51.21;97872.91;5090373;28;20020;-71
2022/02/18 11:20:40;;;;;;;30.85;18.80;;;;;;;14.38;54.43;97870.28;5088765;28;20036;-72